SEJ1440 VABB-VAAH
Flight info
| Callsign | SEJ1440 |
|---|---|
| Flight time | N/A |
| Altitude | 31000 |
| Route | ANOLI2A ISRIS G208 APANO APANO1A |
| Aircraft | B738/M-SDE2E3FGHIRWXY/LB1 |
Departure
| Time | 2026-05-04 04:33 |
|---|---|
| Airport | Chhatrapati Shivaji Maharaj International Airport (VABB) |
Arrival
| Time | N/A |
|---|---|
| Airport | Sardar Vallabh Patel International Airport (VAAH) |
| Time | Latitude | Longitude | Altitude | Speed | Heading |
|---|---|---|---|---|---|
| 2026-05-04 04:07 | 19.09173 | 72.85769 | 29 ft | 0 kts | 337° |
| 2026-05-04 04:23 | 19.09168 | 72.85771 | 29 ft | 4 kts | 332° |
| 2026-05-04 04:23 | 19.09155 | 72.85785 | 29 ft | 4 kts | 253° |
| 2026-05-04 04:23 | 19.09166 | 72.85802 | 29 ft | 1 kts | 209° |
| 2026-05-04 04:27 | 19.09166 | 72.85801 | 29 ft | 1 kts | 210° |
| 2026-05-04 04:27 | 19.09127 | 72.85780 | 28 ft | 10 kts | 207° |
| 2026-05-04 04:27 | 19.09053 | 72.85743 | 27 ft | 13 kts | 187° |
| 2026-05-04 04:27 | 19.09021 | 72.85776 | 27 ft | 6 kts | 96° |
| 2026-05-04 04:28 | 19.09030 | 72.85869 | 27 ft | 17 kts | 88° |
| 2026-05-04 04:28 | 19.09033 | 72.86017 | 28 ft | 23 kts | 89° |
| 2026-05-04 04:28 | 19.09035 | 72.86205 | 29 ft | 28 kts | 89° |
| 2026-05-04 04:28 | 19.09037 | 72.86338 | 31 ft | 20 kts | 90° |
| 2026-05-04 04:29 | 19.09038 | 72.86478 | 31 ft | 19 kts | 86° |
| 2026-05-04 04:29 | 19.09043 | 72.86631 | 32 ft | 26 kts | 89° |
| 2026-05-04 04:29 | 19.09044 | 72.86848 | 32 ft | 31 kts | 90° |
| 2026-05-04 04:29 | 19.09045 | 72.87080 | 33 ft | 31 kts | 90° |
| 2026-05-04 04:30 | 19.09050 | 72.87300 | 34 ft | 29 kts | 89° |
| 2026-05-04 04:30 | 19.09052 | 72.87507 | 35 ft | 27 kts | 89° |
| 2026-05-04 04:30 | 19.09056 | 72.87701 | 36 ft | 26 kts | 89° |
| 2026-05-04 04:30 | 19.09057 | 72.87883 | 37 ft | 24 kts | 90° |
| 2026-05-04 04:31 | 19.09037 | 72.88040 | 38 ft | 18 kts | 143° |
| 2026-05-04 04:31 | 19.09031 | 72.88043 | 36 ft | 0 kts | 154° |
| 2026-05-04 04:31 | 19.09011 | 72.88049 | 37 ft | 14 kts | 166° |
| 2026-05-04 04:32 | 19.08888 | 72.87952 | 36 ft | 16 kts | 263° |
| 2026-05-04 04:32 | 19.08887 | 72.87910 | 36 ft | 0 kts | 269° |
| 2026-05-04 04:32 | 19.08887 | 72.87909 | 36 ft | 0 kts | 269° |
| 2026-05-04 04:33 | 19.08885 | 72.87845 | 36 ft | 38 kts | 268° |
| 2026-05-04 04:33 | 19.08878 | 72.87278 | 35 ft | 114 kts | 269° |
| 2026-05-04 04:33 | 19.08854 | 72.86225 | 62 ft | 172 kts | 265° |
| 2026-05-04 04:33 | 19.08843 | 72.84890 | 673 ft | 186 kts | 268° |